sensor_id;sensor_type;location;lat;lon;timestamp;P1;durP1;ratioP1;P2;durP2;ratioP2
18042;SDS011;9146;48.074;11.968;2023-08-12T00:00:55;3.23;;;3.03;;
18042;SDS011;9146;48.074;11.968;2023-08-12T00:03:22;3.40;;;3.20;;
18042;SDS011;9146;48.074;11.968;2023-08-12T00:05:49;3.30;;;3.10;;
18042;SDS011;9146;48.074;11.968;2023-08-12T00:08:16;3.50;;;3.30;;
18042;SDS011;9146;48.074;11.968;2023-08-12T00:10:44;3.40;;;2.90;;
18042;SDS011;9146;48.074;11.968;2023-08-12T00:13:11;4.20;;;3.80;;
18042;SDS011;9146;48.074;11.968;2023-08-12T00:15:40;3.37;;;3.17;;
18042;SDS011;9146;48.074;11.968;2023-08-12T00:18:07;3.47;;;3.17;;
18042;SDS011;9146;48.074;11.968;2023-08-12T00:20:34;5.57;;;3.57;;
18042;SDS011;9146;48.074;11.968;2023-08-12T00:23:03;3.60;;;3.30;;
18042;SDS011;9146;48.074;11.968;2023-08-12T00:25:31;4.20;;;3.80;;
18042;SDS011;9146;48.074;11.968;2023-08-12T00:28:00;3.90;;;3.60;;
18042;SDS011;9146;48.074;11.968;2023-08-12T00:30:27;4.53;;;4.13;;
18042;SDS011;9146;48.074;11.968;2023-08-12T00:32:54;3.60;;;3.37;;
18042;SDS011;9146;48.074;11.968;2023-08-12T00:35:21;4.13;;;3.83;;
18042;SDS011;9146;48.074;11.968;2023-08-12T00:37:48;3.63;;;3.33;;
18042;SDS011;9146;48.074;11.968;2023-08-12T00:40:15;3.50;;;3.20;;
18042;SDS011;9146;48.074;11.968;2023-08-12T00:42:42;4.23;;;3.83;;
18042;SDS011;9146;48.074;11.968;2023-08-12T00:45:10;3.43;;;3.13;;
18042;SDS011;9146;48.074;11.968;2023-08-12T00:47:38;3.80;;;3.50;;
18042;SDS011;9146;48.074;11.968;2023-08-12T00:50:06;3.90;;;3.60;;
18042;SDS011;9146;48.074;11.968;2023-08-12T00:52:34;3.10;;;2.90;;
18042;SDS011;9146;48.074;11.968;2023-08-12T00:55:02;3.57;;;3.27;;
18042;SDS011;9146;48.074;11.968;2023-08-12T00:57:29;5.13;;;3.60;;
18042;SDS011;9146;48.074;11.968;2023-08-12T00:59:57;3.40;;;3.20;;
18042;SDS011;9146;48.074;11.968;2023-08-12T01:02:25;3.30;;;3.00;;
18042;SDS011;9146;48.074;11.968;2023-08-12T01:04:52;3.67;;;3.37;;
18042;SDS011;9146;48.074;11.968;2023-08-12T01:07:19;4.30;;;3.90;;
18042;SDS011;9146;48.074;11.968;2023-08-12T01:09:46;3.93;;;3.67;;
18042;SDS011;9146;48.074;11.968;2023-08-12T01:12:15;3.97;;;3.67;;
18042;SDS011;9146;48.074;11.968;2023-08-12T01:14:49;3.70;;;3.40;;
18042;SDS011;9146;48.074;11.968;2023-08-12T01:17:26;3.40;;;3.17;;
18042;SDS011;9146;48.074;11.968;2023-08-12T01:19:55;3.77;;;3.47;;
18042;SDS011;9146;48.074;11.968;2023-08-12T01:22:22;4.53;;;4.03;;
18042;SDS011;9146;48.074;11.968;2023-08-12T01:24:53;3.90;;;3.60;;
18042;SDS011;9146;48.074;11.968;2023-08-12T01:27:21;4.90;;;4.50;;
18042;SDS011;9146;48.074;11.968;2023-08-12T01:29:49;6.00;;;4.17;;
18042;SDS011;9146;48.074;11.968;2023-08-12T01:32:19;4.10;;;3.80;;
18042;SDS011;9146;48.074;11.968;2023-08-12T01:34:53;4.37;;;3.93;;
18042;SDS011;9146;48.074;11.968;2023-08-12T01:37:23;3.80;;;3.50;;
18042;SDS011;9146;48.074;11.968;2023-08-12T01:39:54;3.47;;;3.23;;
18042;SDS011;9146;48.074;11.968;2023-08-12T01:42:23;3.83;;;3.53;;
18042;SDS011;9146;48.074;11.968;2023-08-12T01:44:51;3.77;;;3.50;;
18042;SDS011;9146;48.074;11.968;2023-08-12T01:47:18;4.20;;;3.90;;
18042;SDS011;9146;48.074;11.968;2023-08-12T01:49:45;4.00;;;3.70;;
18042;SDS011;9146;48.074;11.968;2023-08-12T01:52:12;5.00;;;4.20;;
18042;SDS011;9146;48.074;11.968;2023-08-12T01:54:39;4.63;;;4.20;;
18042;SDS011;9146;48.074;11.968;2023-08-12T01:57:07;5.00;;;4.60;;
18042;SDS011;9146;48.074;11.968;2023-08-12T01:59:34;4.90;;;4.50;;
18042;SDS011;9146;48.074;11.968;2023-08-12T02:02:01;5.83;;;5.33;;
18042;SDS011;9146;48.074;11.968;2023-08-12T02:04:29;4.53;;;4.23;;
18042;SDS011;9146;48.074;11.968;2023-08-12T02:06:56;5.10;;;4.60;;
18042;SDS011;9146;48.074;11.968;2023-08-12T02:09:23;4.73;;;4.20;;
18042;SDS011;9146;48.074;11.968;2023-08-12T02:11:50;4.90;;;4.50;;
18042;SDS011;9146;48.074;11.968;2023-08-12T02:14:18;5.33;;;4.83;;
18042;SDS011;9146;48.074;11.968;2023-08-12T02:16:45;4.10;;;3.70;;
18042;SDS011;9146;48.074;11.968;2023-08-12T02:19:12;4.87;;;4.47;;
18042;SDS011;9146;48.074;11.968;2023-08-12T02:21:39;4.20;;;3.90;;
18042;SDS011;9146;48.074;11.968;2023-08-12T02:24:06;4.33;;;4.03;;
18042;SDS011;9146;48.074;11.968;2023-08-12T02:26:33;4.70;;;4.30;;
18042;SDS011;9146;48.074;11.968;2023-08-12T02:29:00;4.50;;;4.10;;
18042;SDS011;9146;48.074;11.968;2023-08-12T02:31:29;3.80;;;3.50;;
18042;SDS011;9146;48.074;11.968;2023-08-12T02:33:55;4.13;;;3.83;;
18042;SDS011;9146;48.074;11.968;2023-08-12T02:36:22;3.93;;;3.63;;
18042;SDS011;9146;48.074;11.968;2023-08-12T02:38:50;4.27;;;3.97;;
18042;SDS011;9146;48.074;11.968;2023-08-12T02:41:17;4.77;;;4.37;;
18042;SDS011;9146;48.074;11.968;2023-08-12T02:43:47;3.77;;;3.47;;
18042;SDS011;9146;48.074;11.968;2023-08-12T02:46:14;4.90;;;4.50;;
18042;SDS011;9146;48.074;11.968;2023-08-12T02:48:44;3.40;;;3.20;;
18042;SDS011;9146;48.074;11.968;2023-08-12T02:51:12;4.00;;;3.70;;
18042;SDS011;9146;48.074;11.968;2023-08-12T02:53:39;4.27;;;3.90;;
18042;SDS011;9146;48.074;11.968;2023-08-12T02:56:06;5.47;;;4.70;;
18042;SDS011;9146;48.074;11.968;2023-08-12T02:58:33;5.50;;;4.90;;
18042;SDS011;9146;48.074;11.968;2023-08-12T03:01:00;5.27;;;4.77;;
18042;SDS011;9146;48.074;11.968;2023-08-12T03:03:29;4.70;;;4.30;;
18042;SDS011;9146;48.074;11.968;2023-08-12T03:05:57;5.30;;;4.60;;
18042;SDS011;9146;48.074;11.968;2023-08-12T03:08:24;5.90;;;5.40;;
18042;SDS011;9146;48.074;11.968;2023-08-12T03:10:57;5.07;;;4.67;;
18042;SDS011;9146;48.074;11.968;2023-08-12T03:13:25;5.60;;;5.10;;
18042;SDS011;9146;48.074;11.968;2023-08-12T03:15:51;5.00;;;4.60;;
18042;SDS011;9146;48.074;11.968;2023-08-12T03:18:18;4.47;;;4.07;;
18042;SDS011;9146;48.074;11.968;2023-08-12T03:20:45;4.83;;;3.80;;
18042;SDS011;9146;48.074;11.968;2023-08-12T03:23:14;5.20;;;4.80;;
18042;SDS011;9146;48.074;11.968;2023-08-12T03:25:41;4.43;;;4.03;;
18042;SDS011;9146;48.074;11.968;2023-08-12T03:28:08;4.30;;;4.00;;
18042;SDS011;9146;48.074;11.968;2023-08-12T03:30:35;4.63;;;4.23;;
18042;SDS011;9146;48.074;11.968;2023-08-12T03:33:01;4.97;;;4.57;;
18042;SDS011;9146;48.074;11.968;2023-08-12T03:35:29;5.57;;;4.90;;
18042;SDS011;9146;48.074;11.968;2023-08-12T03:37:55;4.73;;;4.33;;
18042;SDS011;9146;48.074;11.968;2023-08-12T03:40:24;4.80;;;4.23;;
18042;SDS011;9146;48.074;11.968;2023-08-12T03:42:51;3.93;;;3.63;;
18042;SDS011;9146;48.074;11.968;2023-08-12T03:45:18;4.20;;;3.90;;
18042;SDS011;9146;48.074;11.968;2023-08-12T03:47:45;4.20;;;3.90;;
18042;SDS011;9146;48.074;11.968;2023-08-12T03:50:12;5.47;;;4.27;;
18042;SDS011;9146;48.074;11.968;2023-08-12T03:52:39;5.00;;;4.20;;
18042;SDS011;9146;48.074;11.968;2023-08-12T03:55:06;3.57;;;3.27;;
18042;SDS011;9146;48.074;11.968;2023-08-12T03:57:35;4.80;;;4.40;;
18042;SDS011;9146;48.074;11.968;2023-08-12T04:00:02;3.90;;;3.63;;
18042;SDS011;9146;48.074;11.968;2023-08-12T04:02:32;4.40;;;4.10;;
18042;SDS011;9146;48.074;11.968;2023-08-12T04:04:59;4.20;;;3.90;;
18042;SDS011;9146;48.074;11.968;2023-08-12T04:07:26;4.07;;;3.73;;
18042;SDS011;9146;48.074;11.968;2023-08-12T04:09:53;4.23;;;3.83;;
18042;SDS011;9146;48.074;11.968;2023-08-12T04:12:20;5.30;;;4.00;;
18042;SDS011;9146;48.074;11.968;2023-08-12T04:14:49;3.97;;;3.77;;
18042;SDS011;9146;48.074;11.968;2023-08-12T04:17:15;4.27;;;3.87;;
18042;SDS011;9146;48.074;11.968;2023-08-12T04:19:42;3.97;;;3.63;;
18042;SDS011;9146;48.074;11.968;2023-08-12T04:22:09;4.27;;;3.87;;
18042;SDS011;9146;48.074;11.968;2023-08-12T04:24:36;4.50;;;4.20;;
18042;SDS011;9146;48.074;11.968;2023-08-12T04:27:03;4.10;;;3.70;;
18042;SDS011;9146;48.074;11.968;2023-08-12T04:29:30;4.27;;;3.97;;
18042;SDS011;9146;48.074;11.968;2023-08-12T04:31:58;4.17;;;3.87;;
18042;SDS011;9146;48.074;11.968;2023-08-12T04:34:25;4.00;;;3.70;;
18042;SDS011;9146;48.074;11.968;2023-08-12T04:36:52;4.03;;;3.73;;
18042;SDS011;9146;48.074;11.968;2023-08-12T04:39:19;4.30;;;4.00;;
18042;SDS011;9146;48.074;11.968;2023-08-12T04:41:46;4.77;;;4.37;;
18042;SDS011;9146;48.074;11.968;2023-08-12T04:44:13;4.40;;;4.10;;
18042;SDS011;9146;48.074;11.968;2023-08-12T04:46:40;4.97;;;4.47;;
18042;SDS011;9146;48.074;11.968;2023-08-12T04:49:08;5.13;;;4.70;;
18042;SDS011;9146;48.074;11.968;2023-08-12T04:51:35;5.37;;;4.90;;
18042;SDS011;9146;48.074;11.968;2023-08-12T04:54:02;5.00;;;4.60;;
18042;SDS011;9146;48.074;11.968;2023-08-12T04:56:29;5.27;;;4.77;;
18042;SDS011;9146;48.074;11.968;2023-08-12T04:58:56;6.03;;;5.50;;
18042;SDS011;9146;48.074;11.968;2023-08-12T05:01:23;5.33;;;4.57;;
18042;SDS011;9146;48.074;11.968;2023-08-12T05:03:50;4.70;;;4.33;;
18042;SDS011;9146;48.074;11.968;2023-08-12T05:06:18;4.80;;;4.40;;
18042;SDS011;9146;48.074;11.968;2023-08-12T05:08:45;4.47;;;4.07;;
18042;SDS011;9146;48.074;11.968;2023-08-12T05:11:12;4.87;;;4.47;;
18042;SDS011;9146;48.074;11.968;2023-08-12T05:13:38;4.27;;;3.90;;
18042;SDS011;9146;48.074;11.968;2023-08-12T05:16:05;4.00;;;3.70;;
18042;SDS011;9146;48.074;11.968;2023-08-12T05:18:32;5.90;;;4.13;;
18042;SDS011;9146;48.074;11.968;2023-08-12T05:20:59;4.60;;;3.97;;
18042;SDS011;9146;48.074;11.968;2023-08-12T05:23:27;5.30;;;3.73;;
18042;SDS011;9146;48.074;11.968;2023-08-12T05:25:54;4.83;;;4.30;;
18042;SDS011;9146;48.074;11.968;2023-08-12T05:28:22;4.63;;;4.00;;
18042;SDS011;9146;48.074;11.968;2023-08-12T05:30:48;3.67;;;3.40;;
18042;SDS011;9146;48.074;11.968;2023-08-12T05:33:15;4.70;;;4.20;;
18042;SDS011;9146;48.074;11.968;2023-08-12T05:35:42;3.97;;;3.67;;
18042;SDS011;9146;48.074;11.968;2023-08-12T05:38:09;4.57;;;4.17;;
18042;SDS011;9146;48.074;11.968;2023-08-12T05:40:37;3.40;;;3.17;;
18042;SDS011;9146;48.074;11.968;2023-08-12T05:43:04;4.17;;;3.77;;
18042;SDS011;9146;48.074;11.968;2023-08-12T05:45:31;3.87;;;3.57;;
18042;SDS011;9146;48.074;11.968;2023-08-12T05:47:58;4.93;;;3.43;;
18042;SDS011;9146;48.074;11.968;2023-08-12T05:50:25;4.93;;;4.20;;
18042;SDS011;9146;48.074;11.968;2023-08-12T05:52:52;4.43;;;4.10;;
18042;SDS011;9146;48.074;11.968;2023-08-12T05:55:19;4.10;;;3.70;;
18042;SDS011;9146;48.074;11.968;2023-08-12T05:57:47;3.90;;;3.60;;
18042;SDS011;9146;48.074;11.968;2023-08-12T06:00:14;4.73;;;4.33;;
18042;SDS011;9146;48.074;11.968;2023-08-12T06:02:41;4.10;;;3.70;;
18042;SDS011;9146;48.074;11.968;2023-08-12T06:05:08;4.30;;;4.00;;
18042;SDS011;9146;48.074;11.968;2023-08-12T06:07:35;5.97;;;4.70;;
18042;SDS011;9146;48.074;11.968;2023-08-12T06:10:02;4.77;;;3.50;;
18042;SDS011;9146;48.074;11.968;2023-08-12T06:12:30;3.80;;;3.50;;
18042;SDS011;9146;48.074;11.968;2023-08-12T06:14:58;3.87;;;3.57;;
18042;SDS011;9146;48.074;11.968;2023-08-12T06:17:26;5.63;;;4.03;;
18042;SDS011;9146;48.074;11.968;2023-08-12T06:19:53;3.33;;;3.10;;
18042;SDS011;9146;48.074;11.968;2023-08-12T06:22:20;8.00;;;3.67;;
18042;SDS011;9146;48.074;11.968;2023-08-12T06:24:46;3.90;;;3.50;;
18042;SDS011;9146;48.074;11.968;2023-08-12T06:27:13;4.70;;;3.57;;
18042;SDS011;9146;48.074;11.968;2023-08-12T06:29:40;10.03;;;4.00;;
18042;SDS011;9146;48.074;11.968;2023-08-12T06:32:08;3.70;;;2.93;;
18042;SDS011;9146;48.074;11.968;2023-08-12T06:34:37;4.07;;;3.67;;
18042;SDS011;9146;48.074;11.968;2023-08-12T06:37:04;4.17;;;3.77;;
18042;SDS011;9146;48.074;11.968;2023-08-12T06:39:31;3.97;;;3.57;;
18042;SDS011;9146;48.074;11.968;2023-08-12T06:41:58;7.60;;;3.67;;
18042;SDS011;9146;48.074;11.968;2023-08-12T06:44:25;3.53;;;3.23;;
18042;SDS011;9146;48.074;11.968;2023-08-12T06:46:52;4.10;;;3.03;;
18042;SDS011;9146;48.074;11.968;2023-08-12T06:49:20;4.77;;;3.27;;
18042;SDS011;9146;48.074;11.968;2023-08-12T06:51:47;4.33;;;3.10;;
18042;SDS011;9146;48.074;11.968;2023-08-12T06:54:14;3.60;;;3.30;;
18042;SDS011;9146;48.074;11.968;2023-08-12T06:56:41;4.50;;;4.17;;
18042;SDS011;9146;48.074;11.968;2023-08-12T06:59:08;5.20;;;4.00;;
18042;SDS011;9146;48.074;11.968;2023-08-12T07:01:36;7.00;;;3.50;;
18042;SDS011;9146;48.074;11.968;2023-08-12T07:04:03;3.83;;;3.53;;
18042;SDS011;9146;48.074;11.968;2023-08-12T07:06:31;4.23;;;3.50;;
18042;SDS011;9146;48.074;11.968;2023-08-12T07:08:58;6.40;;;4.03;;
18042;SDS011;9146;48.074;11.968;2023-08-12T07:11:25;3.87;;;3.57;;
18042;SDS011;9146;48.074;11.968;2023-08-12T07:13:52;3.50;;;3.00;;
18042;SDS011;9146;48.074;11.968;2023-08-12T07:16:18;3.20;;;3.00;;
18042;SDS011;9146;48.074;11.968;2023-08-12T07:18:45;3.57;;;3.27;;
18042;SDS011;9146;48.074;11.968;2023-08-12T07:21:12;3.80;;;3.50;;
18042;SDS011;9146;48.074;11.968;2023-08-12T07:23:41;3.17;;;2.93;;
18042;SDS011;9146;48.074;11.968;2023-08-12T07:26:08;4.33;;;4.03;;
18042;SDS011;9146;48.074;11.968;2023-08-12T07:28:34;3.70;;;3.40;;
18042;SDS011;9146;48.074;11.968;2023-08-12T07:31:01;4.70;;;3.60;;
18042;SDS011;9146;48.074;11.968;2023-08-12T07:33:28;3.43;;;3.13;;
18042;SDS011;9146;48.074;11.968;2023-08-12T07:35:55;4.20;;;3.83;;
18042;SDS011;9146;48.074;11.968;2023-08-12T07:38:22;3.80;;;2.73;;
18042;SDS011;9146;48.074;11.968;2023-08-12T07:40:51;3.20;;;2.90;;
18042;SDS011;9146;48.074;11.968;2023-08-12T07:43:18;3.17;;;2.93;;
18042;SDS011;9146;48.074;11.968;2023-08-12T07:45:45;3.60;;;3.30;;
18042;SDS011;9146;48.074;11.968;2023-08-12T07:48:16;4.17;;;2.80;;
18042;SDS011;9146;48.074;11.968;2023-08-12T07:50:43;3.20;;;2.77;;
18042;SDS011;9146;48.074;11.968;2023-08-12T07:53:10;3.73;;;3.43;;
18042;SDS011;9146;48.074;11.968;2023-08-12T07:55:37;4.00;;;3.70;;
18042;SDS011;9146;48.074;11.968;2023-08-12T07:58:05;3.60;;;3.30;;
18042;SDS011;9146;48.074;11.968;2023-08-12T08:00:32;3.20;;;3.00;;
18042;SDS011;9146;48.074;11.968;2023-08-12T08:02:59;3.30;;;3.00;;
18042;SDS011;9146;48.074;11.968;2023-08-12T08:05:26;3.23;;;3.03;;
18042;SDS011;9146;48.074;11.968;2023-08-12T08:07:53;3.13;;;2.93;;
18042;SDS011;9146;48.074;11.968;2023-08-12T08:10:20;3.47;;;3.27;;
18042;SDS011;9146;48.074;11.968;2023-08-12T08:12:48;3.70;;;3.40;;
18042;SDS011;9146;48.074;11.968;2023-08-12T08:15:16;5.67;;;3.97;;
18042;SDS011;9146;48.074;11.968;2023-08-12T08:17:43;3.40;;;3.10;;
18042;SDS011;9146;48.074;11.968;2023-08-12T08:20:10;3.70;;;3.40;;
18042;SDS011;9146;48.074;11.968;2023-08-12T08:22:37;6.63;;;3.10;;
18042;SDS011;9146;48.074;11.968;2023-08-12T08:25:04;3.10;;;2.90;;
18042;SDS011;9146;48.074;11.968;2023-08-12T08:27:32;2.90;;;2.70;;
18042;SDS011;9146;48.074;11.968;2023-08-12T08:29:59;3.37;;;3.10;;
18042;SDS011;9146;48.074;11.968;2023-08-12T08:32:27;3.80;;;3.50;;
18042;SDS011;9146;48.074;11.968;2023-08-12T08:34:54;3.03;;;2.83;;
18042;SDS011;9146;48.074;11.968;2023-08-12T08:37:21;6.63;;;3.47;;
18042;SDS011;9146;48.074;11.968;2023-08-12T08:39:48;3.27;;;2.70;;
18042;SDS011;9146;48.074;11.968;2023-08-12T08:42:15;3.23;;;3.03;;
18042;SDS011;9146;48.074;11.968;2023-08-12T08:44:48;3.13;;;2.93;;
18042;SDS011;9146;48.074;11.968;2023-08-12T08:47:19;3.40;;;3.20;;
18042;SDS011;9146;48.074;11.968;2023-08-12T08:49:50;3.73;;;3.43;;
18042;SDS011;9146;48.074;11.968;2023-08-12T08:52:17;3.20;;;3.00;;
18042;SDS011;9146;48.074;11.968;2023-08-12T08:54:44;3.70;;;3.00;;
18042;SDS011;9146;48.074;11.968;2023-08-12T08:57:11;3.30;;;3.00;;
18042;SDS011;9146;48.074;11.968;2023-08-12T08:59:38;4.03;;;3.13;;
18042;SDS011;9146;48.074;11.968;2023-08-12T09:02:07;3.37;;;3.07;;
18042;SDS011;9146;48.074;11.968;2023-08-12T09:04:40;3.53;;;3.20;;
18042;SDS011;9146;48.074;11.968;2023-08-12T09:07:09;3.30;;;3.10;;
18042;SDS011;9146;48.074;11.968;2023-08-12T09:09:37;3.90;;;3.60;;
18042;SDS011;9146;48.074;11.968;2023-08-12T09:12:06;4.13;;;3.73;;
18042;SDS011;9146;48.074;11.968;2023-08-12T09:14:34;4.07;;;3.73;;
18042;SDS011;9146;48.074;11.968;2023-08-12T09:17:01;3.13;;;2.93;;
18042;SDS011;9146;48.074;11.968;2023-08-12T09:19:28;3.53;;;2.87;;
18042;SDS011;9146;48.074;11.968;2023-08-12T09:21:55;3.17;;;2.97;;
18042;SDS011;9146;48.074;11.968;2023-08-12T09:24:25;3.20;;;2.90;;
18042;SDS011;9146;48.074;11.968;2023-08-12T09:26:52;4.47;;;3.20;;
18042;SDS011;9146;48.074;11.968;2023-08-12T09:29:21;3.97;;;3.47;;
18042;SDS011;9146;48.074;11.968;2023-08-12T09:31:49;3.00;;;2.80;;
18042;SDS011;9146;48.074;11.968;2023-08-12T09:34:17;3.87;;;3.57;;
18042;SDS011;9146;48.074;11.968;2023-08-12T09:36:44;3.40;;;3.20;;
18042;SDS011;9146;48.074;11.968;2023-08-12T09:39:12;3.10;;;2.90;;
18042;SDS011;9146;48.074;11.968;2023-08-12T09:41:41;3.60;;;3.10;;
18042;SDS011;9146;48.074;11.968;2023-08-12T09:44:09;3.00;;;2.80;;
18042;SDS011;9146;48.074;11.968;2023-08-12T09:46:36;4.60;;;3.47;;
18042;SDS011;9146;48.074;11.968;2023-08-12T09:49:04;3.23;;;3.03;;
18042;SDS011;9146;48.074;11.968;2023-08-12T09:51:33;3.90;;;3.53;;
18042;SDS011;9146;48.074;11.968;2023-08-12T09:54:01;3.50;;;3.30;;
18042;SDS011;9146;48.074;11.968;2023-08-12T09:56:30;3.47;;;3.10;;
18042;SDS011;9146;48.074;11.968;2023-08-12T09:59:03;3.20;;;2.93;;
18042;SDS011;9146;48.074;11.968;2023-08-12T10:01:33;3.70;;;3.40;;
18042;SDS011;9146;48.074;11.968;2023-08-12T10:04:00;3.03;;;2.83;;
18042;SDS011;9146;48.074;11.968;2023-08-12T10:06:28;3.47;;;3.20;;
18042;SDS011;9146;48.074;11.968;2023-08-12T10:08:55;3.43;;;3.23;;
18042;SDS011;9146;48.074;11.968;2023-08-12T10:11:23;4.03;;;3.70;;
18042;SDS011;9146;48.074;11.968;2023-08-12T10:13:52;4.23;;;3.27;;
18042;SDS011;9146;48.074;11.968;2023-08-12T10:16:21;3.70;;;3.40;;
18042;SDS011;9146;48.074;11.968;2023-08-12T10:18:48;3.37;;;3.00;;
18042;SDS011;9146;48.074;11.968;2023-08-12T10:21:16;2.63;;;2.53;;
18042;SDS011;9146;48.074;11.968;2023-08-12T10:23:44;5.77;;;3.80;;
18042;SDS011;9146;48.074;11.968;2023-08-12T10:26:13;3.17;;;2.97;;
18042;SDS011;9146;48.074;11.968;2023-08-12T10:28:41;3.27;;;3.07;;
18042;SDS011;9146;48.074;11.968;2023-08-12T10:31:10;3.40;;;3.20;;
18042;SDS011;9146;48.074;11.968;2023-08-12T10:33:39;4.50;;;3.17;;
18042;SDS011;9146;48.074;11.968;2023-08-12T10:36:06;3.37;;;3.17;;
18042;SDS011;9146;48.074;11.968;2023-08-12T10:38:34;3.77;;;3.47;;
18042;SDS011;9146;48.074;11.968;2023-08-12T10:41:15;3.00;;;2.80;;
18042;SDS011;9146;48.074;11.968;2023-08-12T10:43:51;3.37;;;3.10;;
18042;SDS011;9146;48.074;11.968;2023-08-12T10:46:23;3.30;;;3.00;;
18042;SDS011;9146;48.074;11.968;2023-08-12T10:49:02;3.73;;;3.53;;
18042;SDS011;9146;48.074;11.968;2023-08-12T10:51:40;5.30;;;3.70;;
18042;SDS011;9146;48.074;11.968;2023-08-12T10:54:10;3.53;;;3.30;;
18042;SDS011;9146;48.074;11.968;2023-08-12T10:59:50;3.23;;;2.93;;
18042;SDS011;9146;48.074;11.968;2023-08-12T11:02:18;3.20;;;3.00;;
18042;SDS011;9146;48.074;11.968;2023-08-12T11:04:49;3.53;;;3.23;;
18042;SDS011;9146;48.074;11.968;2023-08-12T11:07:18;3.83;;;3.53;;
18042;SDS011;9146;48.074;11.968;2023-08-12T11:09:46;3.23;;;2.93;;
18042;SDS011;9146;48.074;11.968;2023-08-12T11:12:18;2.53;;;2.43;;
18042;SDS011;9146;48.074;11.968;2023-08-12T11:14:54;3.33;;;3.13;;
18042;SDS011;9146;48.074;11.968;2023-08-12T11:17:28;3.10;;;2.90;;
18042;SDS011;9146;48.074;11.968;2023-08-12T11:20:00;3.40;;;3.20;;
18042;SDS011;9146;48.074;11.968;2023-08-12T11:22:29;4.33;;;3.40;;
18042;SDS011;9146;48.074;11.968;2023-08-12T11:24:57;3.60;;;3.37;;
18042;SDS011;9146;48.074;11.968;2023-08-12T11:27:24;3.33;;;3.03;;
18042;SDS011;9146;48.074;11.968;2023-08-12T11:29:51;3.53;;;2.93;;
18042;SDS011;9146;48.074;11.968;2023-08-12T11:32:18;3.17;;;2.97;;
18042;SDS011;9146;48.074;11.968;2023-08-12T11:34:45;2.67;;;2.47;;
18042;SDS011;9146;48.074;11.968;2023-08-12T11:37:14;3.40;;;3.10;;
18042;SDS011;9146;48.074;11.968;2023-08-12T11:39:40;5.30;;;2.90;;
18042;SDS011;9146;48.074;11.968;2023-08-12T11:42:07;3.27;;;2.97;;
18042;SDS011;9146;48.074;11.968;2023-08-12T11:44:34;3.33;;;3.10;;
18042;SDS011;9146;48.074;11.968;2023-08-12T11:47:01;3.20;;;3.00;;
18042;SDS011;9146;48.074;11.968;2023-08-12T11:49:28;3.63;;;3.33;;
18042;SDS011;9146;48.074;11.968;2023-08-12T11:51:55;3.33;;;3.13;;
18042;SDS011;9146;48.074;11.968;2023-08-12T11:54:23;2.67;;;2.47;;
18042;SDS011;9146;48.074;11.968;2023-08-12T11:56:51;3.30;;;3.10;;
18042;SDS011;9146;48.074;11.968;2023-08-12T11:59:20;2.80;;;2.60;;
18042;SDS011;9146;48.074;11.968;2023-08-12T12:01:48;3.30;;;3.10;;
18042;SDS011;9146;48.074;11.968;2023-08-12T12:04:15;3.00;;;2.80;;
18042;SDS011;9146;48.074;11.968;2023-08-12T12:06:44;2.83;;;2.70;;
18042;SDS011;9146;48.074;11.968;2023-08-12T12:09:11;3.20;;;3.00;;
18042;SDS011;9146;48.074;11.968;2023-08-12T12:11:41;2.97;;;2.77;;
18042;SDS011;9146;48.074;11.968;2023-08-12T12:14:08;4.20;;;3.67;;
18042;SDS011;9146;48.074;11.968;2023-08-12T12:16:39;3.27;;;2.97;;
18042;SDS011;9146;48.074;11.968;2023-08-12T12:19:12;3.93;;;3.00;;
18042;SDS011;9146;48.074;11.968;2023-08-12T12:21:42;3.40;;;3.20;;
18042;SDS011;9146;48.074;11.968;2023-08-12T12:24:11;5.67;;;2.90;;
18042;SDS011;9146;48.074;11.968;2023-08-12T12:26:39;3.70;;;3.40;;
18042;SDS011;9146;48.074;11.968;2023-08-12T12:29:07;2.97;;;2.77;;
18042;SDS011;9146;48.074;11.968;2023-08-12T12:31:37;2.97;;;2.77;;
18042;SDS011;9146;48.074;11.968;2023-08-12T12:34:04;3.47;;;3.17;;
18042;SDS011;9146;48.074;11.968;2023-08-12T12:36:31;2.83;;;2.70;;
18042;SDS011;9146;48.074;11.968;2023-08-12T12:38:59;8.03;;;3.57;;
18042;SDS011;9146;48.074;11.968;2023-08-12T12:41:25;3.67;;;3.37;;
18042;SDS011;9146;48.074;11.968;2023-08-12T12:43:54;3.10;;;2.90;;
18042;SDS011;9146;48.074;11.968;2023-08-12T12:46:21;3.20;;;2.90;;
18042;SDS011;9146;48.074;11.968;2023-08-12T12:48:48;3.17;;;2.87;;
18042;SDS011;9146;48.074;11.968;2023-08-12T12:51:15;4.60;;;3.03;;
18042;SDS011;9146;48.074;11.968;2023-08-12T12:53:41;3.93;;;2.87;;
18042;SDS011;9146;48.074;11.968;2023-08-12T12:56:08;3.10;;;2.70;;
18042;SDS011;9146;48.074;11.968;2023-08-12T12:58:36;3.33;;;3.13;;
18042;SDS011;9146;48.074;11.968;2023-08-12T13:01:05;4.03;;;3.63;;
18042;SDS011;9146;48.074;11.968;2023-08-12T13:03:32;5.40;;;2.97;;
18042;SDS011;9146;48.074;11.968;2023-08-12T13:05:59;3.50;;;3.20;;
18042;SDS011;9146;48.074;11.968;2023-08-12T13:08:27;3.43;;;3.20;;
18042;SDS011;9146;48.074;11.968;2023-08-12T13:10:55;2.80;;;2.60;;
18042;SDS011;9146;48.074;11.968;2023-08-12T13:13:22;3.03;;;2.83;;
18042;SDS011;9146;48.074;11.968;2023-08-12T13:15:50;2.90;;;2.70;;
18042;SDS011;9146;48.074;11.968;2023-08-12T13:18:19;3.30;;;3.10;;
18042;SDS011;9146;48.074;11.968;2023-08-12T13:20:46;3.03;;;2.83;;
18042;SDS011;9146;48.074;11.968;2023-08-12T13:23:13;2.93;;;2.60;;
18042;SDS011;9146;48.074;11.968;2023-08-12T13:25:40;4.20;;;3.20;;
18042;SDS011;9146;48.074;11.968;2023-08-12T13:28:08;4.07;;;3.17;;
18042;SDS011;9146;48.074;11.968;2023-08-12T13:30:34;2.60;;;2.40;;
18042;SDS011;9146;48.074;11.968;2023-08-12T13:33:02;3.07;;;2.80;;
18042;SDS011;9146;48.074;11.968;2023-08-12T13:35:31;3.10;;;2.90;;
18042;SDS011;9146;48.074;11.968;2023-08-12T13:37:58;3.13;;;2.87;;
18042;SDS011;9146;48.074;11.968;2023-08-12T13:40:25;2.67;;;2.43;;
18042;SDS011;9146;48.074;11.968;2023-08-12T13:42:52;3.20;;;3.00;;
18042;SDS011;9146;48.074;11.968;2023-08-12T13:45:18;2.70;;;2.50;;
18042;SDS011;9146;48.074;11.968;2023-08-12T13:47:45;2.50;;;2.10;;
18042;SDS011;9146;48.074;11.968;2023-08-12T13:50:12;3.00;;;2.77;;
18042;SDS011;9146;48.074;11.968;2023-08-12T13:52:41;3.07;;;2.87;;
18042;SDS011;9146;48.074;11.968;2023-08-12T13:55:08;2.83;;;2.60;;
18042;SDS011;9146;48.074;11.968;2023-08-12T13:57:35;3.20;;;3.00;;
18042;SDS011;9146;48.074;11.968;2023-08-12T14:00:02;11.73;;;3.50;;
18042;SDS011;9146;48.074;11.968;2023-08-12T14:02:34;2.43;;;2.33;;
18042;SDS011;9146;48.074;11.968;2023-08-12T14:05:01;3.63;;;2.93;;
18042;SDS011;9146;48.074;11.968;2023-08-12T14:07:28;2.87;;;2.60;;
18042;SDS011;9146;48.074;11.968;2023-08-12T14:09:56;4.53;;;2.60;;
18042;SDS011;9146;48.074;11.968;2023-08-12T14:12:24;3.20;;;3.00;;
18042;SDS011;9146;48.074;11.968;2023-08-12T14:14:51;6.77;;;2.77;;
18042;SDS011;9146;48.074;11.968;2023-08-12T14:17:18;2.43;;;2.23;;
18042;SDS011;9146;48.074;11.968;2023-08-12T14:19:48;2.67;;;2.57;;
18042;SDS011;9146;48.074;11.968;2023-08-12T14:22:15;3.47;;;2.60;;
18042;SDS011;9146;48.074;11.968;2023-08-12T14:24:42;2.83;;;2.63;;
18042;SDS011;9146;48.074;11.968;2023-08-12T14:27:12;4.13;;;2.50;;
18042;SDS011;9146;48.074;11.968;2023-08-12T14:29:39;3.60;;;3.30;;
18042;SDS011;9146;48.074;11.968;2023-08-12T14:32:06;2.93;;;2.73;;
18042;SDS011;9146;48.074;11.968;2023-08-12T14:34:33;3.37;;;2.77;;
18042;SDS011;9146;48.074;11.968;2023-08-12T14:37:02;2.90;;;2.40;;
18042;SDS011;9146;48.074;11.968;2023-08-12T14:39:29;4.20;;;3.23;;
18042;SDS011;9146;48.074;11.968;2023-08-12T14:41:56;3.13;;;2.93;;
18042;SDS011;9146;48.074;11.968;2023-08-12T14:44:24;3.57;;;3.10;;
18042;SDS011;9146;48.074;11.968;2023-08-12T14:46:51;3.00;;;2.70;;
18042;SDS011;9146;48.074;11.968;2023-08-12T14:49:18;2.93;;;2.73;;
18042;SDS011;9146;48.074;11.968;2023-08-12T14:51:45;2.83;;;2.63;;
18042;SDS011;9146;48.074;11.968;2023-08-12T14:54:12;4.23;;;3.07;;